sensor_id;sensor_type;location;lat;lon;timestamp;temperature;humidity
21648;DHT22;10985;54.182;7.890;2023-04-24T00:02:02;11.30;99.90
21648;DHT22;10985;54.182;7.890;2023-04-24T00:04:29;11.30;99.90
21648;DHT22;10985;54.182;7.890;2023-04-24T00:06:55;11.30;99.90
21648;DHT22;10985;54.182;7.890;2023-04-24T00:09:22;11.30;99.90
21648;DHT22;10985;54.182;7.890;2023-04-24T00:11:48;11.20;99.90
21648;DHT22;10985;54.182;7.890;2023-04-24T00:14:13;11.20;99.90
21648;DHT22;10985;54.182;7.890;2023-04-24T00:16:39;11.20;99.90
21648;DHT22;10985;54.182;7.890;2023-04-24T00:19:04;11.20;99.90
21648;DHT22;10985;54.182;7.890;2023-04-24T00:21:31;11.30;99.90
21648;DHT22;10985;54.182;7.890;2023-04-24T00:23:58;11.20;99.90
21648;DHT22;10985;54.182;7.890;2023-04-24T00:26:23;11.20;99.90
21648;DHT22;10985;54.182;7.890;2023-04-24T00:28:49;11.10;99.90
21648;DHT22;10985;54.182;7.890;2023-04-24T00:31:15;11.10;99.90
21648;DHT22;10985;54.182;7.890;2023-04-24T00:33:40;11.10;99.90
21648;DHT22;10985;54.182;7.890;2023-04-24T00:36:06;11.10;99.90
21648;DHT22;10985;54.182;7.890;2023-04-24T00:38:32;11.20;99.90
21648;DHT22;10985;54.182;7.890;2023-04-24T00:40:58;11.20;99.90
21648;DHT22;10985;54.182;7.890;2023-04-24T00:43:23;11.20;99.90
21648;DHT22;10985;54.182;7.890;2023-04-24T00:45:49;11.20;99.90
21648;DHT22;10985;54.182;7.890;2023-04-24T00:48:15;11.10;99.90
21648;DHT22;10985;54.182;7.890;2023-04-24T00:50:42;11.10;99.90
21648;DHT22;10985;54.182;7.890;2023-04-24T00:53:07;11.10;99.90
21648;DHT22;10985;54.182;7.890;2023-04-24T00:55:33;11.10;99.90
21648;DHT22;10985;54.182;7.890;2023-04-24T00:57:59;11.10;99.90
21648;DHT22;10985;54.182;7.890;2023-04-24T01:00:25;11.10;99.90
21648;DHT22;10985;54.182;7.890;2023-04-24T01:02:51;11.10;99.90
21648;DHT22;10985;54.182;7.890;2023-04-24T01:05:17;11.10;99.90
21648;DHT22;10985;54.182;7.890;2023-04-24T01:07:45;11.10;99.90
21648;DHT22;10985;54.182;7.890;2023-04-24T01:10:14;11.10;99.90
21648;DHT22;10985;54.182;7.890;2023-04-24T01:12:39;11.10;99.90
21648;DHT22;10985;54.182;7.890;2023-04-24T01:15:06;11.10;99.90
21648;DHT22;10985;54.182;7.890;2023-04-24T01:17:34;11.10;99.90
21648;DHT22;10985;54.182;7.890;2023-04-24T01:20:00;11.10;99.90
21648;DHT22;10985;54.182;7.890;2023-04-24T01:22:26;11.10;99.90
21648;DHT22;10985;54.182;7.890;2023-04-24T01:24:52;11.10;99.90
21648;DHT22;10985;54.182;7.890;2023-04-24T01:27:19;11.10;99.90
21648;DHT22;10985;54.182;7.890;2023-04-24T01:29:45;11.10;99.90
21648;DHT22;10985;54.182;7.890;2023-04-24T01:32:11;11.10;99.90
21648;DHT22;10985;54.182;7.890;2023-04-24T01:34:37;11.10;99.90
21648;DHT22;10985;54.182;7.890;2023-04-24T01:37:02;11.10;99.90
21648;DHT22;10985;54.182;7.890;2023-04-24T01:39:28;11.10;99.90
21648;DHT22;10985;54.182;7.890;2023-04-24T01:41:55;11.10;99.90
21648;DHT22;10985;54.182;7.890;2023-04-24T01:44:21;11.10;99.90
21648;DHT22;10985;54.182;7.890;2023-04-24T01:46:46;11.10;99.90
21648;DHT22;10985;54.182;7.890;2023-04-24T01:49:12;11.10;99.90
21648;DHT22;10985;54.182;7.890;2023-04-24T01:51:37;11.00;99.90
21648;DHT22;10985;54.182;7.890;2023-04-24T01:54:03;11.00;99.90
21648;DHT22;10985;54.182;7.890;2023-04-24T01:56:33;11.10;99.90
21648;DHT22;10985;54.182;7.890;2023-04-24T01:59:02;11.10;99.90
21648;DHT22;10985;54.182;7.890;2023-04-24T02:01:34;11.00;99.90
21648;DHT22;10985;54.182;7.890;2023-04-24T02:04:01;11.00;99.90
21648;DHT22;10985;54.182;7.890;2023-04-24T02:06:26;11.00;99.90
21648;DHT22;10985;54.182;7.890;2023-04-24T02:08:52;11.00;99.90
21648;DHT22;10985;54.182;7.890;2023-04-24T02:11:18;11.00;99.90
21648;DHT22;10985;54.182;7.890;2023-04-24T02:13:44;10.90;99.90
21648;DHT22;10985;54.182;7.890;2023-04-24T02:16:09;10.90;99.90
21648;DHT22;10985;54.182;7.890;2023-04-24T02:18:35;10.90;99.90
21648;DHT22;10985;54.182;7.890;2023-04-24T02:21:01;11.00;99.90
21648;DHT22;10985;54.182;7.890;2023-04-24T02:23:26;11.00;99.90
21648;DHT22;10985;54.182;7.890;2023-04-24T02:25:52;11.00;99.90
21648;DHT22;10985;54.182;7.890;2023-04-24T02:28:18;11.00;99.90
21648;DHT22;10985;54.182;7.890;2023-04-24T02:30:44;10.90;99.90
21648;DHT22;10985;54.182;7.890;2023-04-24T02:33:11;10.90;99.90
21648;DHT22;10985;54.182;7.890;2023-04-24T02:35:36;10.80;99.90
21648;DHT22;10985;54.182;7.890;2023-04-24T02:38:02;10.80;99.90
21648;DHT22;10985;54.182;7.890;2023-04-24T02:40:28;10.80;99.90
21648;DHT22;10985;54.182;7.890;2023-04-24T02:42:54;10.70;99.90
21648;DHT22;10985;54.182;7.890;2023-04-24T02:45:19;10.50;99.90
21648;DHT22;10985;54.182;7.890;2023-04-24T02:47:45;10.50;99.90
21648;DHT22;10985;54.182;7.890;2023-04-24T02:50:10;10.40;99.90
21648;DHT22;10985;54.182;7.890;2023-04-24T02:52:36;10.40;99.90
21648;DHT22;10985;54.182;7.890;2023-04-24T02:55:02;10.30;99.90
21648;DHT22;10985;54.182;7.890;2023-04-24T02:57:27;10.30;99.90
21648;DHT22;10985;54.182;7.890;2023-04-24T02:59:53;10.30;99.90
21648;DHT22;10985;54.182;7.890;2023-04-24T03:02:18;10.30;99.90
21648;DHT22;10985;54.182;7.890;2023-04-24T03:04:44;10.30;99.90
21648;DHT22;10985;54.182;7.890;2023-04-24T03:07:09;10.20;99.90
21648;DHT22;10985;54.182;7.890;2023-04-24T03:09:35;10.20;99.90
21648;DHT22;10985;54.182;7.890;2023-04-24T03:12:00;10.20;99.90
21648;DHT22;10985;54.182;7.890;2023-04-24T03:14:26;10.20;99.90
21648;DHT22;10985;54.182;7.890;2023-04-24T03:16:51;10.10;99.90
21648;DHT22;10985;54.182;7.890;2023-04-24T03:19:17;10.10;99.90
21648;DHT22;10985;54.182;7.890;2023-04-24T03:21:42;10.00;99.90
21648;DHT22;10985;54.182;7.890;2023-04-24T03:24:08;10.00;99.90
21648;DHT22;10985;54.182;7.890;2023-04-24T03:26:34;9.90;99.90
21648;DHT22;10985;54.182;7.890;2023-04-24T03:29:00;9.90;99.90
21648;DHT22;10985;54.182;7.890;2023-04-24T03:31:26;9.90;99.90
21648;DHT22;10985;54.182;7.890;2023-04-24T03:33:51;9.90;99.90
21648;DHT22;10985;54.182;7.890;2023-04-24T03:36:17;9.90;99.90
21648;DHT22;10985;54.182;7.890;2023-04-24T03:38:44;9.80;99.90
21648;DHT22;10985;54.182;7.890;2023-04-24T03:41:10;9.80;99.90
21648;DHT22;10985;54.182;7.890;2023-04-24T03:43:35;9.80;99.90
21648;DHT22;10985;54.182;7.890;2023-04-24T03:46:01;9.80;99.90
21648;DHT22;10985;54.182;7.890;2023-04-24T03:48:30;9.80;99.90
21648;DHT22;10985;54.182;7.890;2023-04-24T03:50:55;9.70;99.90
21648;DHT22;10985;54.182;7.890;2023-04-24T03:53:21;9.70;99.90
21648;DHT22;10985;54.182;7.890;2023-04-24T03:55:47;9.70;99.90
21648;DHT22;10985;54.182;7.890;2023-04-24T03:58:12;9.60;99.90
21648;DHT22;10985;54.182;7.890;2023-04-24T04:00:39;9.60;99.90
21648;DHT22;10985;54.182;7.890;2023-04-24T04:03:06;9.60;99.90
21648;DHT22;10985;54.182;7.890;2023-04-24T04:05:31;9.60;99.90
21648;DHT22;10985;54.182;7.890;2023-04-24T04:07:57;9.60;99.90
21648;DHT22;10985;54.182;7.890;2023-04-24T04:10:22;9.60;99.90
21648;DHT22;10985;54.182;7.890;2023-04-24T04:12:48;9.60;99.90
21648;DHT22;10985;54.182;7.890;2023-04-24T04:15:13;9.60;99.90
21648;DHT22;10985;54.182;7.890;2023-04-24T04:17:39;9.50;99.90
21648;DHT22;10985;54.182;7.890;2023-04-24T04:20:05;9.60;99.90
21648;DHT22;10985;54.182;7.890;2023-04-24T04:22:37;9.50;99.90
21648;DHT22;10985;54.182;7.890;2023-04-24T04:25:03;9.60;99.90
21648;DHT22;10985;54.182;7.890;2023-04-24T04:27:29;9.50;99.90
21648;DHT22;10985;54.182;7.890;2023-04-24T04:29:58;9.60;99.90
21648;DHT22;10985;54.182;7.890;2023-04-24T04:32:24;9.50;99.90
21648;DHT22;10985;54.182;7.890;2023-04-24T04:34:50;9.50;99.90
21648;DHT22;10985;54.182;7.890;2023-04-24T04:37:18;9.50;99.90
21648;DHT22;10985;54.182;7.890;2023-04-24T04:39:44;9.50;99.90
21648;DHT22;10985;54.182;7.890;2023-04-24T04:42:09;9.60;99.90
21648;DHT22;10985;54.182;7.890;2023-04-24T04:44:35;9.50;99.90
21648;DHT22;10985;54.182;7.890;2023-04-24T04:47:01;9.50;99.90
21648;DHT22;10985;54.182;7.890;2023-04-24T04:49:31;9.50;99.90
21648;DHT22;10985;54.182;7.890;2023-04-24T04:51:56;9.50;99.90
21648;DHT22;10985;54.182;7.890;2023-04-24T04:54:22;9.50;99.90
21648;DHT22;10985;54.182;7.890;2023-04-24T04:56:50;9.50;99.90
21648;DHT22;10985;54.182;7.890;2023-04-24T04:59:16;9.50;99.90
21648;DHT22;10985;54.182;7.890;2023-04-24T05:01:41;9.50;99.90
21648;DHT22;10985;54.182;7.890;2023-04-24T05:04:07;9.50;99.90
21648;DHT22;10985;54.182;7.890;2023-04-24T05:06:32;9.50;99.90
21648;DHT22;10985;54.182;7.890;2023-04-24T05:08:58;9.50;99.90
21648;DHT22;10985;54.182;7.890;2023-04-24T05:11:23;9.50;99.90
21648;DHT22;10985;54.182;7.890;2023-04-24T05:13:49;9.50;99.90
21648;DHT22;10985;54.182;7.890;2023-04-24T05:16:14;9.50;99.90
21648;DHT22;10985;54.182;7.890;2023-04-24T05:18:40;9.50;99.90
21648;DHT22;10985;54.182;7.890;2023-04-24T05:21:06;9.50;99.90
21648;DHT22;10985;54.182;7.890;2023-04-24T05:23:31;9.50;99.90
21648;DHT22;10985;54.182;7.890;2023-04-24T05:25:57;9.50;99.90
21648;DHT22;10985;54.182;7.890;2023-04-24T05:28:22;9.50;99.90
21648;DHT22;10985;54.182;7.890;2023-04-24T05:30:48;9.50;99.90
21648;DHT22;10985;54.182;7.890;2023-04-24T05:33:13;9.60;99.90
21648;DHT22;10985;54.182;7.890;2023-04-24T05:35:40;9.60;99.90
21648;DHT22;10985;54.182;7.890;2023-04-24T05:38:11;9.60;99.90
21648;DHT22;10985;54.182;7.890;2023-04-24T05:40:36;9.60;99.90
21648;DHT22;10985;54.182;7.890;2023-04-24T05:43:02;9.60;99.90
21648;DHT22;10985;54.182;7.890;2023-04-24T05:45:27;9.60;99.90
21648;DHT22;10985;54.182;7.890;2023-04-24T05:47:53;9.60;99.90
21648;DHT22;10985;54.182;7.890;2023-04-24T05:50:19;9.60;99.90
21648;DHT22;10985;54.182;7.890;2023-04-24T05:52:44;9.60;99.90
21648;DHT22;10985;54.182;7.890;2023-04-24T05:55:10;9.60;99.90
21648;DHT22;10985;54.182;7.890;2023-04-24T05:57:35;9.60;99.90
21648;DHT22;10985;54.182;7.890;2023-04-24T06:00:01;9.50;99.90
21648;DHT22;10985;54.182;7.890;2023-04-24T06:02:26;9.60;99.90
21648;DHT22;10985;54.182;7.890;2023-04-24T06:04:52;9.60;99.90
21648;DHT22;10985;54.182;7.890;2023-04-24T06:07:18;9.50;99.90
21648;DHT22;10985;54.182;7.890;2023-04-24T06:09:43;9.50;99.90
21648;DHT22;10985;54.182;7.890;2023-04-24T06:12:09;9.60;99.90
21648;DHT22;10985;54.182;7.890;2023-04-24T06:14:35;9.50;99.90
21648;DHT22;10985;54.182;7.890;2023-04-24T06:17:00;9.50;99.90
21648;DHT22;10985;54.182;7.890;2023-04-24T06:19:26;9.50;99.90
21648;DHT22;10985;54.182;7.890;2023-04-24T06:21:51;9.50;99.90
21648;DHT22;10985;54.182;7.890;2023-04-24T06:24:17;9.60;99.90
21648;DHT22;10985;54.182;7.890;2023-04-24T06:26:42;9.50;99.90
21648;DHT22;10985;54.182;7.890;2023-04-24T06:29:08;9.50;99.90
21648;DHT22;10985;54.182;7.890;2023-04-24T06:31:33;9.50;99.90
21648;DHT22;10985;54.182;7.890;2023-04-24T06:34:03;9.50;99.90
21648;DHT22;10985;54.182;7.890;2023-04-24T06:36:28;9.50;99.90
21648;DHT22;10985;54.182;7.890;2023-04-24T06:38:54;9.50;99.90
21648;DHT22;10985;54.182;7.890;2023-04-24T06:41:20;9.50;99.90
21648;DHT22;10985;54.182;7.890;2023-04-24T06:43:45;9.50;99.90
21648;DHT22;10985;54.182;7.890;2023-04-24T06:46:11;9.50;99.90
21648;DHT22;10985;54.182;7.890;2023-04-24T06:48:37;9.50;99.90
21648;DHT22;10985;54.182;7.890;2023-04-24T06:51:02;9.50;99.90
21648;DHT22;10985;54.182;7.890;2023-04-24T06:53:28;9.50;99.90
21648;DHT22;10985;54.182;7.890;2023-04-24T06:55:54;9.50;99.90
21648;DHT22;10985;54.182;7.890;2023-04-24T06:58:20;9.50;99.90
21648;DHT22;10985;54.182;7.890;2023-04-24T07:00:45;9.50;99.90
21648;DHT22;10985;54.182;7.890;2023-04-24T07:03:11;9.40;99.90
21648;DHT22;10985;54.182;7.890;2023-04-24T07:05:36;9.40;99.90
21648;DHT22;10985;54.182;7.890;2023-04-24T07:08:03;9.40;99.90
21648;DHT22;10985;54.182;7.890;2023-04-24T07:10:29;9.40;99.90
21648;DHT22;10985;54.182;7.890;2023-04-24T07:12:55;9.40;99.90
21648;DHT22;10985;54.182;7.890;2023-04-24T07:15:24;9.40;99.90
21648;DHT22;10985;54.182;7.890;2023-04-24T07:17:50;9.40;99.90
21648;DHT22;10985;54.182;7.890;2023-04-24T07:20:15;9.40;99.90
21648;DHT22;10985;54.182;7.890;2023-04-24T07:22:41;9.40;99.90
21648;DHT22;10985;54.182;7.890;2023-04-24T07:25:07;9.40;99.90
21648;DHT22;10985;54.182;7.890;2023-04-24T07:27:34;9.40;99.90
21648;DHT22;10985;54.182;7.890;2023-04-24T07:30:00;9.40;99.90
21648;DHT22;10985;54.182;7.890;2023-04-24T07:32:25;9.40;99.90
21648;DHT22;10985;54.182;7.890;2023-04-24T07:34:51;9.40;99.90
21648;DHT22;10985;54.182;7.890;2023-04-24T07:37:16;9.40;99.90
21648;DHT22;10985;54.182;7.890;2023-04-24T07:39:42;9.40;99.90
21648;DHT22;10985;54.182;7.890;2023-04-24T07:42:08;9.40;99.90
21648;DHT22;10985;54.182;7.890;2023-04-24T07:44:33;9.40;99.90
21648;DHT22;10985;54.182;7.890;2023-04-24T07:46:59;9.40;99.90
21648;DHT22;10985;54.182;7.890;2023-04-24T07:49:25;9.40;99.90
21648;DHT22;10985;54.182;7.890;2023-04-24T07:51:50;9.40;99.90
21648;DHT22;10985;54.182;7.890;2023-04-24T07:54:16;9.50;99.90
21648;DHT22;10985;54.182;7.890;2023-04-24T07:56:44;9.50;99.90
21648;DHT22;10985;54.182;7.890;2023-04-24T07:59:10;9.50;99.90
21648;DHT22;10985;54.182;7.890;2023-04-24T08:01:36;9.50;99.90
21648;DHT22;10985;54.182;7.890;2023-04-24T08:04:02;9.50;99.90
21648;DHT22;10985;54.182;7.890;2023-04-24T08:06:27;9.60;99.90
21648;DHT22;10985;54.182;7.890;2023-04-24T08:08:56;9.60;99.90
21648;DHT22;10985;54.182;7.890;2023-04-24T08:11:21;9.60;99.90
21648;DHT22;10985;54.182;7.890;2023-04-24T08:13:47;9.70;99.90
21648;DHT22;10985;54.182;7.890;2023-04-24T08:16:12;9.70;99.90
21648;DHT22;10985;54.182;7.890;2023-04-24T08:18:38;9.90;99.90
21648;DHT22;10985;54.182;7.890;2023-04-24T08:21:03;10.00;99.90
21648;DHT22;10985;54.182;7.890;2023-04-24T08:23:29;10.00;99.90
21648;DHT22;10985;54.182;7.890;2023-04-24T08:25:55;10.20;99.90
21648;DHT22;10985;54.182;7.890;2023-04-24T08:28:20;10.30;99.90
21648;DHT22;10985;54.182;7.890;2023-04-24T08:30:46;10.40;99.90
21648;DHT22;10985;54.182;7.890;2023-04-24T08:33:14;10.50;99.90
21648;DHT22;10985;54.182;7.890;2023-04-24T08:35:39;10.40;99.90
21648;DHT22;10985;54.182;7.890;2023-04-24T08:38:05;10.50;99.90
21648;DHT22;10985;54.182;7.890;2023-04-24T08:40:34;10.60;99.90
21648;DHT22;10985;54.182;7.890;2023-04-24T08:43:00;10.60;99.90
21648;DHT22;10985;54.182;7.890;2023-04-24T08:45:26;10.70;99.90
21648;DHT22;10985;54.182;7.890;2023-04-24T08:47:53;10.70;99.90
21648;DHT22;10985;54.182;7.890;2023-04-24T08:50:20;10.80;99.90
21648;DHT22;10985;54.182;7.890;2023-04-24T08:52:48;10.80;99.90
21648;DHT22;10985;54.182;7.890;2023-04-24T08:55:14;10.90;99.90
21648;DHT22;10985;54.182;7.890;2023-04-24T08:57:42;10.80;99.90
21648;DHT22;10985;54.182;7.890;2023-04-24T09:00:10;10.90;99.90
21648;DHT22;10985;54.182;7.890;2023-04-24T09:02:36;11.00;99.90
21648;DHT22;10985;54.182;7.890;2023-04-24T09:05:04;11.00;99.90
21648;DHT22;10985;54.182;7.890;2023-04-24T09:07:32;11.10;99.90
21648;DHT22;10985;54.182;7.890;2023-04-24T09:09:59;11.00;99.90
21648;DHT22;10985;54.182;7.890;2023-04-24T09:12:25;11.00;99.90
21648;DHT22;10985;54.182;7.890;2023-04-24T09:14:51;11.00;99.90
21648;DHT22;10985;54.182;7.890;2023-04-24T09:17:17;11.00;99.90
21648;DHT22;10985;54.182;7.890;2023-04-24T09:19:42;11.00;99.90
21648;DHT22;10985;54.182;7.890;2023-04-24T09:22:09;11.10;99.90
21648;DHT22;10985;54.182;7.890;2023-04-24T09:24:35;11.10;99.90
21648;DHT22;10985;54.182;7.890;2023-04-24T09:27:00;11.10;99.90
21648;DHT22;10985;54.182;7.890;2023-04-24T09:29:29;11.10;99.90
21648;DHT22;10985;54.182;7.890;2023-04-24T09:31:55;11.10;99.90
21648;DHT22;10985;54.182;7.890;2023-04-24T09:34:22;11.10;99.90
21648;DHT22;10985;54.182;7.890;2023-04-24T09:36:48;11.20;99.90
21648;DHT22;10985;54.182;7.890;2023-04-24T09:39:15;11.20;99.90
21648;DHT22;10985;54.182;7.890;2023-04-24T09:44:15;11.30;99.90
21648;DHT22;10985;54.182;7.890;2023-04-24T09:46:42;11.40;99.90
21648;DHT22;10985;54.182;7.890;2023-04-24T09:49:24;11.40;99.90
21648;DHT22;10985;54.182;7.890;2023-04-24T09:51:50;11.40;99.90
21648;DHT22;10985;54.182;7.890;2023-04-24T09:54:20;11.40;99.90
21648;DHT22;10985;54.182;7.890;2023-04-24T09:56:48;11.40;99.90
21648;DHT22;10985;54.182;7.890;2023-04-24T09:59:17;11.40;99.90
21648;DHT22;10985;54.182;7.890;2023-04-24T10:01:43;11.30;99.90
21648;DHT22;10985;54.182;7.890;2023-04-24T10:06:47;11.40;99.90
21648;DHT22;10985;54.182;7.890;2023-04-24T10:09:14;11.40;99.90
21648;DHT22;10985;54.182;7.890;2023-04-24T10:11:42;11.40;99.90
21648;DHT22;10985;54.182;7.890;2023-04-24T10:14:10;11.40;99.90
21648;DHT22;10985;54.182;7.890;2023-04-24T10:16:37;11.40;99.90
21648;DHT22;10985;54.182;7.890;2023-04-24T10:19:03;11.50;99.90
21648;DHT22;10985;54.182;7.890;2023-04-24T10:21:29;11.60;99.90
21648;DHT22;10985;54.182;7.890;2023-04-24T10:23:55;11.60;99.90
21648;DHT22;10985;54.182;7.890;2023-04-24T10:26:21;11.60;99.90
21648;DHT22;10985;54.182;7.890;2023-04-24T10:28:48;11.60;99.90
21648;DHT22;10985;54.182;7.890;2023-04-24T10:31:14;11.70;99.90
21648;DHT22;10985;54.182;7.890;2023-04-24T10:33:41;11.70;99.90
21648;DHT22;10985;54.182;7.890;2023-04-24T10:36:11;11.70;99.90
21648;DHT22;10985;54.182;7.890;2023-04-24T10:38:39;11.70;99.90
21648;DHT22;10985;54.182;7.890;2023-04-24T10:41:08;11.70;99.90
21648;DHT22;10985;54.182;7.890;2023-04-24T10:43:45;11.60;99.90
21648;DHT22;10985;54.182;7.890;2023-04-24T10:46:18;11.60;99.90
21648;DHT22;10985;54.182;7.890;2023-04-24T10:48:52;11.60;99.90
21648;DHT22;10985;54.182;7.890;2023-04-24T10:51:22;11.60;99.90
21648;DHT22;10985;54.182;7.890;2023-04-24T10:53:52;11.50;99.90
21648;DHT22;10985;54.182;7.890;2023-04-24T10:56:18;11.50;99.90
21648;DHT22;10985;54.182;7.890;2023-04-24T10:58:45;11.40;99.90
21648;DHT22;10985;54.182;7.890;2023-04-24T11:01:31;11.40;99.90
21648;DHT22;10985;54.182;7.890;2023-04-24T11:03:59;11.40;99.90
21648;DHT22;10985;54.182;7.890;2023-04-24T11:06:35;11.40;99.90
21648;DHT22;10985;54.182;7.890;2023-04-24T11:09:06;11.30;99.90
21648;DHT22;10985;54.182;7.890;2023-04-24T11:11:33;11.30;99.90
21648;DHT22;10985;54.182;7.890;2023-04-24T11:23:58;11.10;99.90
21648;DHT22;10985;54.182;7.890;2023-04-24T11:26:24;11.10;99.90
21648;DHT22;10985;54.182;7.890;2023-04-24T11:29:06;11.10;99.90
21648;DHT22;10985;54.182;7.890;2023-04-24T11:31:44;11.10;99.90
21648;DHT22;10985;54.182;7.890;2023-04-24T11:34:18;11.00;99.90
21648;DHT22;10985;54.182;7.890;2023-04-24T11:36:45;11.00;99.90
21648;DHT22;10985;54.182;7.890;2023-04-24T11:39:11;11.00;99.90
21648;DHT22;10985;54.182;7.890;2023-04-24T11:41:37;11.00;99.90
21648;DHT22;10985;54.182;7.890;2023-04-24T11:44:05;11.00;99.90
21648;DHT22;10985;54.182;7.890;2023-04-24T11:46:31;11.00;99.90
21648;DHT22;10985;54.182;7.890;2023-04-24T11:48:57;11.00;99.90
21648;DHT22;10985;54.182;7.890;2023-04-24T11:51:24;11.00;99.90
21648;DHT22;10985;54.182;7.890;2023-04-24T11:53:51;11.00;99.90
21648;DHT22;10985;54.182;7.890;2023-04-24T11:56:23;10.90;99.90
21648;DHT22;10985;54.182;7.890;2023-04-24T11:58:50;10.90;99.90
21648;DHT22;10985;54.182;7.890;2023-04-24T12:01:17;10.90;99.90
21648;DHT22;10985;54.182;7.890;2023-04-24T12:03:47;10.90;99.90
21648;DHT22;10985;54.182;7.890;2023-04-24T12:06:13;10.90;99.90
21648;DHT22;10985;54.182;7.890;2023-04-24T12:08:39;10.90;99.90
21648;DHT22;10985;54.182;7.890;2023-04-24T12:11:06;10.80;99.90
21648;DHT22;10985;54.182;7.890;2023-04-24T12:13:35;10.80;99.90
21648;DHT22;10985;54.182;7.890;2023-04-24T12:16:04;10.80;99.90
21648;DHT22;10985;54.182;7.890;2023-04-24T12:18:31;10.80;99.90
21648;DHT22;10985;54.182;7.890;2023-04-24T12:21:15;10.80;99.90
21648;DHT22;10985;54.182;7.890;2023-04-24T12:23:43;10.80;99.90
21648;DHT22;10985;54.182;7.890;2023-04-24T12:26:08;10.80;99.90
21648;DHT22;10985;54.182;7.890;2023-04-24T12:28:36;10.80;99.90
21648;DHT22;10985;54.182;7.890;2023-04-24T12:31:02;10.80;99.90
21648;DHT22;10985;54.182;7.890;2023-04-24T12:33:27;10.80;99.90
21648;DHT22;10985;54.182;7.890;2023-04-24T12:35:53;10.80;99.90
21648;DHT22;10985;54.182;7.890;2023-04-24T12:38:23;10.80;99.90
21648;DHT22;10985;54.182;7.890;2023-04-24T12:41:11;10.70;99.90
21648;DHT22;10985;54.182;7.890;2023-04-24T12:43:37;10.70;99.90
21648;DHT22;10985;54.182;7.890;2023-04-24T12:46:03;10.70;99.90
21648;DHT22;10985;54.182;7.890;2023-04-24T12:48:30;10.60;99.90
21648;DHT22;10985;54.182;7.890;2023-04-24T12:50:59;10.60;99.90
21648;DHT22;10985;54.182;7.890;2023-04-24T12:53:27;10.60;99.90
21648;DHT22;10985;54.182;7.890;2023-04-24T12:55:54;10.50;99.90
21648;DHT22;10985;54.182;7.890;2023-04-24T12:58:20;10.60;99.90
21648;DHT22;10985;54.182;7.890;2023-04-24T13:00:46;10.50;99.90
21648;DHT22;10985;54.182;7.890;2023-04-24T13:03:12;10.50;99.90
21648;DHT22;10985;54.182;7.890;2023-04-24T13:05:37;10.40;99.90
21648;DHT22;10985;54.182;7.890;2023-04-24T13:08:03;10.40;99.90
21648;DHT22;10985;54.182;7.890;2023-04-24T13:10:29;10.40;99.90
21648;DHT22;10985;54.182;7.890;2023-04-24T13:12:54;10.30;99.90
21648;DHT22;10985;54.182;7.890;2023-04-24T13:15:20;10.30;99.90
21648;DHT22;10985;54.182;7.890;2023-04-24T13:17:45;10.30;99.90
21648;DHT22;10985;54.182;7.890;2023-04-24T13:20:11;10.20;99.90
21648;DHT22;10985;54.182;7.890;2023-04-24T13:22:36;10.20;99.90
21648;DHT22;10985;54.182;7.890;2023-04-24T13:25:02;10.20;99.90
21648;DHT22;10985;54.182;7.890;2023-04-24T13:27:28;10.10;99.90
21648;DHT22;10985;54.182;7.890;2023-04-24T13:29:54;10.10;99.90
21648;DHT22;10985;54.182;7.890;2023-04-24T13:32:19;10.00;99.90
21648;DHT22;10985;54.182;7.890;2023-04-24T13:34:45;10.00;99.90
21648;DHT22;10985;54.182;7.890;2023-04-24T13:37:11;10.00;99.90
21648;DHT22;10985;54.182;7.890;2023-04-24T13:39:36;10.00;99.90
21648;DHT22;10985;54.182;7.890;2023-04-24T13:42:02;10.00;99.90
21648;DHT22;10985;54.182;7.890;2023-04-24T13:44:28;10.00;99.90
21648;DHT22;10985;54.182;7.890;2023-04-24T13:46:54;9.90;99.90
21648;DHT22;10985;54.182;7.890;2023-04-24T13:49:22;9.90;99.90
21648;DHT22;10985;54.182;7.890;2023-04-24T13:51:50;9.90;99.90
21648;DHT22;10985;54.182;7.890;2023-04-24T13:54:16;9.90;99.90
21648;DHT22;10985;54.182;7.890;2023-04-24T13:56:42;9.90;99.90
21648;DHT22;10985;54.182;7.890;2023-04-24T13:59:08;9.90;99.90
21648;DHT22;10985;54.182;7.890;2023-04-24T14:01:34;9.90;99.90
21648;DHT22;10985;54.182;7.890;2023-04-24T14:03:59;9.80;99.90
21648;DHT22;10985;54.182;7.890;2023-04-24T14:06:25;9.90;99.90
21648;DHT22;10985;54.182;7.890;2023-04-24T14:08:51;9.80;99.90
21648;DHT22;10985;54.182;7.890;2023-04-24T14:11:17;9.90;99.90
21648;DHT22;10985;54.182;7.890;2023-04-24T14:13:43;9.90;99.90
21648;DHT22;10985;54.182;7.890;2023-04-24T14:16:10;9.90;99.90
21648;DHT22;10985;54.182;7.890;2023-04-24T14:18:35;9.90;99.90
21648;DHT22;10985;54.182;7.890;2023-04-24T14:21:04;9.90;99.90
21648;DHT22;10985;54.182;7.890;2023-04-24T14:23:30;9.90;99.90
21648;DHT22;10985;54.182;7.890;2023-04-24T14:25:57;9.90;99.90
21648;DHT22;10985;54.182;7.890;2023-04-24T14:28:23;9.90;99.90
21648;DHT22;10985;54.182;7.890;2023-04-24T14:30:48;9.90;99.90
21648;DHT22;10985;54.182;7.890;2023-04-24T14:33:14;9.90;99.90
21648;DHT22;10985;54.182;7.890;2023-04-24T14:35:40;10.00;99.90
21648;DHT22;10985;54.182;7.890;2023-04-24T14:38:07;10.00;99.90
21648;DHT22;10985;54.182;7.890;2023-04-24T14:40:32;10.10;99.90
21648;DHT22;10985;54.182;7.890;2023-04-24T14:42:58;10.10;99.90
21648;DHT22;10985;54.182;7.890;2023-04-24T14:45:27;10.10;99.90
21648;DHT22;10985;54.182;7.890;2023-04-24T14:47:53;10.10;99.90
21648;DHT22;10985;54.182;7.890;2023-04-24T14:50:19;10.10;99.90
21648;DHT22;10985;54.182;7.890;2023-04-24T14:52:45;10.10;99.90
21648;DHT22;10985;54.182;7.890;2023-04-24T14:55:10;10.10;99.90
21648;DHT22;10985;54.182;7.890;2023-04-24T14:57:36;10.10;99.90
21648;DHT22;10985;54.182;7.890;2023-04-24T15:00:03;10.10;99.90
21648;DHT22;10985;54.182;7.890;2023-04-24T15:02:32;10.10;99.90
21648;DHT22;10985;54.182;7.890;2023-04-24T15:04:58;10.00;99.90
21648;DHT22;10985;54.182;7.890;2023-04-24T15:07:24;10.00;99.90
21648;DHT22;10985;54.182;7.890;2023-04-24T15:09:49;10.00;99.90
21648;DHT22;10985;54.182;7.890;2023-04-24T15:12:15;9.90;99.90
21648;DHT22;10985;54.182;7.890;2023-04-24T15:14:40;9.90;99.90
21648;DHT22;10985;54.182;7.890;2023-04-24T15:17:06;9.90;99.90
21648;DHT22;10985;54.182;7.890;2023-04-24T15:19:31;9.80;99.90
21648;DHT22;10985;54.182;7.890;2023-04-24T15:21:57;9.90;99.90
21648;DHT22;10985;54.182;7.890;2023-04-24T15:24:22;9.90;99.90
21648;DHT22;10985;54.182;7.890;2023-04-24T15:26:48;9.80;99.90
21648;DHT22;10985;54.182;7.890;2023-04-24T15:29:13;9.80;99.90
21648;DHT22;10985;54.182;7.890;2023-04-24T15:31:39;9.80;99.90
21648;DHT22;10985;54.182;7.890;2023-04-24T15:34:05;9.80;99.90
21648;DHT22;10985;54.182;7.890;2023-04-24T15:36:31;9.80;99.90
21648;DHT22;10985;54.182;7.890;2023-04-24T15:38:57;9.80;99.90
21648;DHT22;10985;54.182;7.890;2023-04-24T15:41:23;9.80;99.90
21648;DHT22;10985;54.182;7.890;2023-04-24T15:43:48;9.80;99.90
21648;DHT22;10985;54.182;7.890;2023-04-24T15:46:14;9.80;99.90
21648;DHT22;10985;54.182;7.890;2023-04-24T15:48:41;9.80;99.90